1 luglio 2022

Tempo Codice Tempo metereologico Temp. Vista Base nuvolosa Vento METAR/SPECI
12:30 am
L
52 °F 1 mi - Var Var 2 kt METAR LFSL 302230Z AUTO VRB02KT 1600 R29/1300U BCFG VV/// 11/10 Q1020
12:00 am
V
54 °F 6¼ mi+ 3.100 ft Var 000° 0 kt METAR LFSL 302200Z AUTO 00000KT 9999 BKN031 12/11 Q1020

30 giugno 2022

Tempo Codice Tempo metereologico Temp. Vista Base nuvolosa Vento METAR/SPECI
11:30 pm
V
54 °F 6¼ mi+ 3.200 ft Var 000° 0 kt METAR LFSL 302130Z AUTO 00000KT 9999 BKN032 BKN072 BKN098 12/11 Q1020
11:00 pm
V
54 °F 6¼ mi+ - Var 000° 0 kt METAR LFSL 302100Z AUTO 00000KT CAVOK 12/11 Q1020
10:30 pm
V
54 °F 6¼ mi+ - Var 000° 0 kt METAR LFSL 302030Z AUTO 00000KT CAVOK 12/12 Q1020
10:00 pm
V
55 °F 6¼ mi+ - Var 000° 0 kt METAR LFSL 302000Z AUTO 00000KT CAVOK 13/12 Q1019 NOSIG
9:30 pm
V
57 °F 6¼ mi+ - 200° 200° 1 kt METAR LFSL 301930Z AUTO 20001KT CAVOK 14/13 Q1019 NOSIG
9:00 pm
V
57 °F 6¼ mi+ 10.000 ft Var Var 2 kt METAR LFSL 301900Z AUTO VRB02KT 9999 SCT009 BKN100 BKN120 14/12 Q1019 NOSIG
8:30 pm
V
59 °F 6¼ mi+ - Var Var 2 kt METAR LFSL 301830Z AUTO VRB02KT CAVOK 15/12 Q1019 NOSIG
8:00 pm
V
57 °F 6¼ mi+ 10.000 ft Var Var 2 kt METAR LFSL 301800Z AUTO VRB02KT 9999 FEW008 SCT076 OVC100 14/12 Q1018 NOSIG
7:30 pm
V
57 °F 6¼ mi+ 9.400 ft Var Var 2 kt METAR LFSL 301730Z AUTO VRB02KT 9999 FEW008/// OVC094/// ///TCU 14/12 Q1018 BECMG SCT013 BKN030
7:00 pm
V
59 °F 6¼ mi+ 10.000 ft Var Var 2 kt METAR LFSL 301700Z AUTO VRB02KT 9999 SCT009/// BKN100/// ///TCU 15/12 Q1018 TEMPO 3000 RA BECMG SCT013 BKN030
6:30 pm
V
57 °F 6¼ mi+ 10.000 ft Var Var 2 kt METAR LFSL 301630Z AUTO VRB02KT 9999 FEW008/// BKN100/// //////TCU 14/12 Q1018 TEMPO 3000 RA BECMG SCT013 BKN030
6:00 pm
I
55 °F 6¼ mi+ 800 ft 310° 310° 3 kt METAR LFSL 301600Z AUTO 31003KT 280V340 9999 -RA OVC008/// ///TCU 13/12 Q1018 BECMG SCT013 BKN030
5:30 pm
I
57 °F 6¼ mi+ 700 ft 280° 280° 3 kt METAR LFSL 301530Z AUTO 28003KT 220V320 9999 -RA BKN007/// OVC032/// //////TCU 14/12 Q1018 BECMG SCT013 BKN030
5:00 pm
I
57 °F 6¼ mi+ 800 ft Var Var 2 kt METAR LFSL 301500Z AUTO VRB02KT 9999 -RA BKN008/// BKN036/// BKN046/// ///CB 14/12 Q1018 TEMPO 3000 RA BECMG SCT013 BKN030
4:30 pm
M
57 °F 6¼ mi+ 1.000 ft 310° 310° 5 kt METAR LFSL 301430Z AUTO 31005KT 9999 -RA BKN010/// BKN020/// BKN035/// ///CB 14/12 Q1018 BECMG SCT013 BKN030
4:00 pm
V
55 °F 6¼ mi+ 6.200 ft 300° 300° 7 kt METAR LFSL 301400Z AUTO 30007KT 9999 -RA FEW012/// SCT038/// OVC062/// ///CB 13/12 Q1018 BECMG SCT013 BKN030
3:30 pm
I
57 °F 6¼ mi+ 700 ft 300° 300° 6 kt METAR LFSL 301330Z AUTO 30006KT 270V340 9999 BKN007/// BKN052/// OVC062/// //////CB 14/13 Q1018 BECMG SCT013 BKN030
3:00 pm
M
57 °F 6¼ mi+ 1.000 ft 290° 290° 6 kt METAR LFSL 301300Z AUTO 29006KT 9999 -RA SCT006/// BKN010/// OVC054/// //////CB 14/12 Q1017 TEMPO 3000 -RADZ BECMG SCT013 BKN030
2:30 pm
V
57 °F 6¼ mi+ 5.600 ft 290° 290° 6 kt METAR LFSL 301230Z AUTO 29006KT 240V320 9999 RA FEW008/// OVC056/// ///TCU 14/13 Q1017 TEMPO 3000 -RADZ BECMG SCT013 BKN030
2:00 pm
I
57 °F 6¼ mi+ 800 ft 290° 290° 6 kt METAR LFSL 301200Z AUTO 29006KT 240V320 9999 -RA BKN008/// BKN034/// BKN047/// //////TCU 14/13 Q1017 TEMPO 3000 -RADZ OVC004
1:30 pm
M
57 °F 6¼ mi+ 1.200 ft 290° 290° 6 kt METAR LFSL 301130Z AUTO 29006KT 9999 -RA SCT006/// BKN012/// BKN023/// //////CB 14/13 Q1017 BECMG SCT013 BKN030
1:00 pm
I
57 °F 6¼ mi+ 600 ft 290° 290° 4 kt METAR LFSL 301100Z AUTO 29004KT 250V320 9999 -RA BKN006/// BKN018/// OVC027/// ///TCU 14/13 Q1017 TEMPO 3000 -RADZ BECMG SCT013 BKN030
12:30 pm
I
55 °F 6¼ mi+ 600 ft 320° 320° 5 kt METAR LFSL 301030Z AUTO 32005KT 9999 OVC006/// //////CB 13/13 Q1016 TEMPO 3000 -RADZ BECMG SCT013 BKN030
12:00 pm
I
57 °F 6¼ mi+ 700 ft 320° 320° 7 kt METAR LFSL 301000Z AUTO 32007KT 9999 BKN007 OVC012 14/12 Q1016 TEMPO 3000 -RADZ OVC003
11:30 am
I
55 °F 6¼ mi+ 600 ft 310° 310° 8 kt METAR LFSL 300930Z AUTO 31008KT 280V340 9999 BKN006/// OVC010/// ///TCU 13/12 Q1016 TEMPO 3000 -RADZ OVC003
11:00 am
I
57 °F 4⅜ mi 500 ft 320° 320° 10 kt METAR LFSL 300900Z AUTO 32010KT 7000 OVC005 14/13 Q1015 TEMPO 3000 -RADZ
10:30 am
L
57 °F 3⅛ mi 400 ft 310° 310° 10 kt METAR LFSL 300830Z AUTO 31010KT 5000 DZ BR BKN004 OVC008 14/13 Q1015 TEMPO NSW OVC005
10:00 am
L
55 °F 3 mi 300 ft 310° 310° 9 kt METAR LFSL 300800Z AUTO 31009KT 4800 DZ BR BKN003 OVC007 13/13 Q1015 TEMPO NSW OVC005
9:30 am
L
55 °F 2⅜ mi 400 ft 310° 310° 9 kt METAR LFSL 300730Z AUTO 31009KT 3800 DZ BR BKN004 BKN010 OVC026 13/13 Q1015 TEMPO NSW OVC005
9:00 am
M
55 °F 6¼ mi+ 2.200 ft 330° 330° 8 kt METAR LFSL 300700Z AUTO 33008KT 9999 -DZ OVC022 13/13 Q1014 TEMPO 4000 -RADZ OVC003
8:30 am
M
55 °F 6¼ mi+ 1.900 ft 320° 320° 11 kt METAR LFSL 300630Z AUTO 32011KT 9999 FEW008/// SCT014/// OVC019/// ///TCU 13/12 Q1014 TEMPO 4000 -RADZ OVC003
8:00 am
I
57 °F 6¼ mi+ 600 ft 310° 310° 12 kt METAR LFSL 300600Z AUTO 31012KT 9999 OVC006 14/13 Q1014 TEMPO 4000 -RADZ OVC003
7:30 am
L
57 °F 6¼ mi+ 300 ft 300° 300° 10 kt METAR LFSL 300530Z AUTO 30010KT 9999 OVC003/// //////CB 14/13 Q1013 TEMPO 4000 -RADZ BKN013
7:00 am
L
57 °F 6¼ mi+ 400 ft 310° 310° 9 kt METAR LFSL 300500Z AUTO 31009KT 9999 OVC004/// //////CB 14/13 Q1013 TEMPO 4000 -RADZ OVC002
6:30 am
L
57 °F 6¼ mi+ 300 ft 310° 310° 8 kt METAR LFSL 300430Z AUTO 31008KT 9999 OVC003/// ///TCU 14/13 Q1013 TEMPO 4000 -RADZ OVC002
6:00 am
L
57 °F 6¼ mi+ 300 ft 300° 300° 8 kt METAR LFSL 300400Z AUTO 30008KT 9999 OVC003/// ///TCU 14/14 Q1013 TEMPO 4000 -RADZ OVC002
5:30 am
L
57 °F 6¼ mi+ 300 ft 300° 300° 8 kt METAR LFSL 300330Z AUTO 30008KT 9999 OVC003 14/14 Q1013 TEMPO 4000 -RADZ
5:00 am
L
59 °F 5⅝ mi 200 ft 290° 290° 8 kt METAR LFSL 300300Z AUTO 29008KT 250V320 9000 BKN002/// OVC076/// //////TCU 15/14 Q1013 TEMPO 4000 -RADZ BKN004
4:30 am
L
59 °F 6¼ mi+ 200 ft 290° 290° 7 kt METAR LFSL 300230Z AUTO 29007KT 240V320 9999 OVC002/// //////CB 15/14 Q1013
4:00 am
L
61 °F 6¼ mi+ 300 ft 310° 310° 3 kt METAR LFSL 300200Z AUTO 31003KT 280V340 9999 -RA BKN003/// OVC029/// //////CB 16/15 Q1014
3:30 am
L
61 °F 6¼ mi+ 300 ft 310° 310° 5 kt METAR LFSL 300130Z AUTO 31005KT 280V340 9999 BKN003/// OVC066/// ///TCU 16/15 Q1014
3:00 am
L
61 °F 6¼ mi+ 300 ft 300° 300° 6 kt METAR LFSL 300100Z AUTO 30006KT 9999 BKN003/// BKN008/// BKN066/// ///CB 16/15 Q1014
2:30 am
V
61 °F 6¼ mi+ 8.000 ft 350° 350° 7 kt METAR LFSL 300030Z AUTO 35007KT 9999 -RA FEW006/// BKN080/// OVC100/// ///TCU 16/15 Q1014
2:00 am
I
61 °F 6¼ mi+ 500 ft 310° 310° 8 kt METAR LFSL 300000Z AUTO 31008KT 9999 -RA VCTS BKN005/// BKN010/// BKN037/// //////CB 16/15 Q1014
1:30 am
L
61 °F 3¾ mi 400 ft 300° 300° 8 kt METAR LFSL 292330Z AUTO 30008KT 260V350 6000 +TSRA BKN004/// BKN056/// BKN088/// //////CB 16/16 Q1014
1:00 am
I
64 °F 1⅜ mi - 310° 310° 10 kt METAR LFSL 292300Z AUTO 31010KT 240V350 9999 2300 +RA VCTS ///CB 18/16 Q1014
12:30 am
V
64 °F 6¼ mi+ - 290° 290° 9 kt METAR LFSL 292230Z AUTO 29009KT 260V320 9999 //////CB 18/15 Q1014
12:00 am
V
66 °F 6¼ mi+ - 300° 300° 6 kt METAR LFSL 292200Z AUTO 30006KT 260V360 9999 VCTS ///CB 19/15 Q1013

29 giugno 2022

Tempo Codice Tempo metereologico Temp. Vista Base nuvolosa Vento METAR/SPECI
11:30 pm
V
68 °F 6¼ mi+ - 330° 330° 5 kt METAR LFSL 292130Z AUTO 33005KT 9999 //////TCU 20/14 Q1014
11:00 pm
V
68 °F 6¼ mi+ - 320° 320° 7 kt METAR LFSL 292100Z AUTO 32007KT 9999 ///TCU 20/14 Q1014
10:30 pm
V
70 °F 6¼ mi+ - 330° 330° 8 kt METAR LFSL 292030Z AUTO 33008KT CAVOK 21/13 Q1014
10:00 pm
V
70 °F 6¼ mi+ - 320° 320° 9 kt METAR LFSL 292000Z AUTO 32009KT CAVOK 21/13 Q1014 TEMPO VRB20G30KT 3000 TSRA BECMG SCT040 FEW060CB BKN120
9:30 pm
V
72 °F 6¼ mi+ - 330° 330° 9 kt METAR LFSL 291930Z AUTO 33009KT CAVOK 22/13 Q1014 TEMPO VRB20G30KT 3000 TSRA BECMG SCT040 FEW060CB BKN120
9:00 pm
V
72 °F 6¼ mi+ - 320° 320° 8 kt METAR LFSL 291900Z AUTO 32008KT CAVOK 22/13 Q1014 BECMG SCT040 FEW060CB BKN120
8:30 pm
V
73 °F 6¼ mi+ - 310° 310° 10 kt METAR LFSL 291830Z AUTO 31010KT CAVOK 23/13 Q1014 BECMG SCT040 FEW060CB BKN120
8:00 pm
V
75 °F 6¼ mi+ - 310° 310° 12 kt METAR LFSL 291800Z AUTO 31012KT CAVOK 24/14 Q1013 BECMG SCT040 FEW060CB BKN120
7:30 pm
V
77 °F 6¼ mi+ - 290° 290° 8 kt METAR LFSL 291730Z AUTO 29008KT 190V320 CAVOK 25/13 Q1013 BECMG SCT040 FEW060CB BKN120
7:00 pm
V
79 °F 6¼ mi+ - 270° 270° 5 kt METAR LFSL 291700Z AUTO 27005KT 200V310 CAVOK 26/12 Q1013 NOSIG
6:30 pm
V
79 °F 6¼ mi+ - 300° 300° 8 kt METAR LFSL 291630Z AUTO 30008KT 270V330 CAVOK 26/12 Q1014 NOSIG
6:00 pm
V
81 °F 6¼ mi+ - 290° 290° 3 kt METAR LFSL 291600Z AUTO 29003KT 180V350 CAVOK 27/12 Q1013 NOSIG
5:30 pm
V
79 °F 6¼ mi+ - 290° 290° 5 kt METAR LFSL 291530Z AUTO 29005KT 230V350 CAVOK 26/11 Q1014 NOSIG
5:00 pm
V
81 °F 6¼ mi+ - Var Var 3 kt METAR LFSL 291500Z AUTO VRB03KT CAVOK 27/10 Q1014 NOSIG
4:30 pm
V
81 °F 6¼ mi+ - Var Var 3 kt METAR LFSL 291430Z AUTO VRB03KT CAVOK 27/11 Q1014 NOSIG
4:00 pm
V
79 °F 6¼ mi+ - Var Var 4 kt METAR LFSL 291400Z AUTO VRB04KT CAVOK 26/11 Q1014 NOSIG
3:30 pm
V
79 °F 6¼ mi+ - 230° 230° 6 kt METAR LFSL 291330Z AUTO 23006KT 150V310 CAVOK 26/12 Q1014 NOSIG
3:00 pm
V
79 °F 6¼ mi+ - 230° 230° 4 kt METAR LFSL 291300Z AUTO 23004KT 150V320 CAVOK 26/12 Q1015 NOSIG
2:30 pm
V
79 °F 6¼ mi+ - Var Var 3 kt METAR LFSL 291230Z AUTO VRB03KT CAVOK 26/12 Q1015 NOSIG
2:00 pm
V
77 °F 6¼ mi+ - Var Var 3 kt METAR LFSL 291200Z AUTO VRB03KT CAVOK 25/12 Q1015 NOSIG
1:30 pm
V
77 °F 6¼ mi+ - Var Var 5 kt METAR LFSL 291130Z AUTO VRB05KT CAVOK 25/12 Q1016 NOSIG
1:00 pm
V
75 °F 6¼ mi+ - 140° 140° 5 kt METAR LFSL 291100Z AUTO 14005KT 090V190 CAVOK 24/11 Q1016 NOSIG
12:30 pm
V
75 °F 6¼ mi+ - 130° 130° 4 kt METAR LFSL 291030Z AUTO 13004KT 080V190 CAVOK 24/12 Q1016 NOSIG
12:00 pm
V
73 °F 6¼ mi+ - 100° 100° 4 kt METAR LFSL 291000Z AUTO 10004KT 350V140 CAVOK 23/11 Q1016 NOSIG
11:30 am
V
73 °F 6¼ mi+ - Var Var 2 kt METAR LFSL 290930Z AUTO VRB02KT CAVOK 23/12 Q1016 NOSIG
11:00 am
V
72 °F 6¼ mi+ - Var Var 3 kt METAR LFSL 290900Z AUTO VRB03KT CAVOK 22/12 Q1017 NOSIG
10:30 am
V
70 °F 6¼ mi+ - 120° 120° 4 kt METAR LFSL 290830Z AUTO 12004KT 100V160 CAVOK 21/12 Q1017 NOSIG
10:00 am
V
68 °F 6¼ mi+ - 120° 120° 5 kt METAR LFSL 290800Z AUTO 12005KT 090V160 CAVOK 20/12 Q1017 NOSIG
9:30 am
V
66 °F 6¼ mi+ - 110° 110° 4 kt METAR LFSL 290730Z AUTO 11004KT 080V160 CAVOK 19/13 Q1017 NOSIG
9:00 am
V
64 °F 6¼ mi+ - 120° 120° 5 kt METAR LFSL 290700Z AUTO 12005KT CAVOK 18/13 Q1017 NOSIG
8:30 am
V
61 °F 6¼ mi+ - 110° 110° 4 kt METAR LFSL 290630Z AUTO 11004KT CAVOK 16/13 Q1017 NOSIG
8:00 am
V
59 °F 6¼ mi+ - 110° 110° 4 kt METAR LFSL 290600Z AUTO 11004KT CAVOK 15/12 Q1017 NOSIG
7:30 am
V
55 °F 6¼ mi+ - 120° 120° 3 kt METAR LFSL 290530Z AUTO 12003KT CAVOK 13/12 Q1017 NOSIG
7:00 am
V
52 °F 6¼ mi+ - Var 000° 0 kt METAR LFSL 290500Z AUTO 00000KT CAVOK 11/10 Q1017 NOSIG
6:30 am
V
50 °F 6¼ mi+ - Var 000° 0 kt METAR LFSL 290430Z AUTO 00000KT CAVOK 10/09 Q1017 NOSIG
6:00 am
V
50 °F 6¼ mi+ - Var 000° 0 kt METAR LFSL 290400Z AUTO 00000KT CAVOK 10/09 Q1017 NOSIG
5:30 am
V
50 °F 6¼ mi+ - Var 000° 0 kt METAR LFSL 290330Z AUTO 00000KT CAVOK 10/09 Q1017 NOSIG
5:00 am
V
50 °F 6¼ mi+ - Var 000° 0 kt METAR LFSL 290300Z AUTO 00000KT CAVOK 10/09 Q1017
4:30 am
V
50 °F 6¼ mi+ - Var 000° 0 kt METAR LFSL 290230Z AUTO 00000KT CAVOK 10/09 Q1017
4:00 am
V
52 °F 6¼ mi+ - Var 000° 0 kt METAR LFSL 290200Z AUTO 00000KT CAVOK 11/10 Q1017
3:30 am
V
52 °F 6¼ mi+ - Var 000° 0 kt METAR LFSL 290130Z AUTO 00000KT CAVOK 11/10 Q1017
3:00 am
V
54 °F 6¼ mi+ - Var 000° 0 kt METAR LFSL 290100Z AUTO 00000KT CAVOK 12/10 Q1017
2:30 am
V
54 °F 6¼ mi+ - Var 000° 0 kt METAR LFSL 290030Z AUTO 00000KT CAVOK 12/11 Q1017
2:00 am
V
54 °F 6¼ mi+ - Var 000° 0 kt METAR LFSL 290000Z AUTO 00000KT CAVOK 12/11 Q1018
1:30 am
V
55 °F 6¼ mi+ - 310° 310° 1 kt METAR LFSL 282330Z AUTO 31001KT CAVOK 13/11 Q1018
1:00 am
V
55 °F 6¼ mi+ - Var 000° 0 kt METAR LFSL 282300Z AUTO 00000KT CAVOK 13/11 Q1018
12:30 am
V
57 °F 6¼ mi+ - Var 000° 0 kt METAR LFSL 282230Z AUTO 00000KT CAVOK 14/11 Q1019
12:00 am
V
57 °F 6¼ mi+ - 300° 300° 2 kt METAR LFSL 282200Z AUTO 30002KT CAVOK 14/12 Q1018

28 giugno 2022

Tempo Codice Tempo metereologico Temp. Vista Base nuvolosa Vento METAR/SPECI
11:30 pm
V
59 °F 6¼ mi+ - Var 000° 0 kt METAR LFSL 282130Z AUTO 00000KT CAVOK 15/12 Q1019
11:00 pm
V
61 °F 6¼ mi+ - Var 000° 0 kt METAR LFSL 282100Z AUTO 00000KT CAVOK 16/12 Q1018
10:30 pm
V
63 °F 6¼ mi+ - 280° 280° 1 kt METAR LFSL 282030Z AUTO 28001KT CAVOK 17/12 Q1018
10:00 pm
V
66 °F 6¼ mi+ - 290° 290° 3 kt METAR LFSL 282000Z AUTO 29003KT CAVOK 19/12 Q1018 NOSIG
9:30 pm
V
70 °F 6¼ mi+ - Var Var 3 kt METAR LFSL 281930Z AUTO VRB03KT CAVOK 21/11 Q1018 NOSIG
9:00 pm
V
72 °F 6¼ mi+ - 290° 290° 6 kt METAR LFSL 281900Z AUTO 29006KT 260V320 CAVOK 22/11 Q1018 NOSIG
8:30 pm
V
73 °F 6¼ mi+ - 300° 300° 8 kt METAR LFSL 281830Z AUTO 30008KT 260V320 CAVOK 23/11 Q1017 NOSIG
8:00 pm
V
75 °F 6¼ mi+ - 310° 310° 9 kt METAR LFSL 281800Z AUTO 31009KT 280V340 CAVOK 24/11 Q1017 NOSIG
7:30 pm
V
75 °F 6¼ mi+ - 310° 310° 9 kt METAR LFSL 281730Z AUTO 31009KT CAVOK 24/11 Q1017 NOSIG
7:00 pm
V
75 °F 6¼ mi+ - 310° 310° 8 kt METAR LFSL 281700Z AUTO 31008KT 270V340 CAVOK 24/11 Q1017 NOSIG
6:30 pm
V
77 °F 6¼ mi+ - 300° 300° 6 kt METAR LFSL 281630Z AUTO 30006KT 210V350 CAVOK 25/11 Q1017 NOSIG
6:00 pm
V
75 °F 6¼ mi+ - 310° 310° 7 kt METAR LFSL 281600Z AUTO 31007KT 260V350 CAVOK 24/11 Q1017 NOSIG
5:30 pm
V
75 °F 6¼ mi+ - 320° 320° 10 kt METAR LFSL 281530Z AUTO 32010KT CAVOK 24/11 Q1018 NOSIG
5:00 pm
V
75 °F 6¼ mi+ - 320° 320° 10 kt METAR LFSL 281500Z AUTO 32010KT 260V010 CAVOK 24/11 Q1018 NOSIG
Dati più vecchi

Scarica la nostra applicazione

Facile accesso a tutte le previsioni dell'aviazione sul tuo cellulare e tablet.
Con molte caratteristiche non disponibili sul sito web, come il supporto offline e una lista personale di aeroporti.

Noi e le terze parti seguiamo il tuo comportamento in internet sul nostro sito web con i cookie. Se continui, riteniamo che tu sia d'accordo con la nostra politica sui cookie. Per saperne di più